sensor_id;sensor_type;location;lat;lon;timestamp;pressure;altitude;pressure_sealevel;temperature
68440;BMP180;55421;51.600;5.718;2023-09-19T00:00:57;223696.59;;;15.40
68440;BMP180;55421;51.600;5.718;2023-09-19T00:03:38;223489.41;;;15.34
68440;BMP180;55421;51.600;5.718;2023-09-19T00:06:05;223292.59;;;15.30
68440;BMP180;55421;51.600;5.718;2023-09-19T00:08:34;223210.00;;;15.32
68440;BMP180;55421;51.600;5.718;2023-09-19T00:11:01;223222.80;;;15.30
68440;BMP180;55421;51.600;5.718;2023-09-19T00:13:28;223140.59;;;15.30
68440;BMP180;55421;51.600;5.718;2023-09-19T00:15:55;223062.41;;;15.30
68440;BMP180;55421;51.600;5.718;2023-09-19T00:18:21;222993.20;;;15.20
68440;BMP180;55421;51.600;5.718;2023-09-19T00:20:49;222984.00;;;15.20
68440;BMP180;55421;51.600;5.718;2023-09-19T00:23:17;222976.20;;;15.20
68440;BMP180;55421;51.600;5.718;2023-09-19T00:25:45;222966.59;;;15.20
68440;BMP180;55421;51.600;5.718;2023-09-19T00:28:11;222947.41;;;15.20
68440;BMP180;55421;51.600;5.718;2023-09-19T00:30:38;222939.80;;;15.10
68440;BMP180;55421;51.600;5.718;2023-09-19T00:33:05;222911.80;;;15.10
68440;BMP180;55421;51.600;5.718;2023-09-19T00:35:33;222892.20;;;15.10
68440;BMP180;55421;51.600;5.718;2023-09-19T00:38:03;222872.41;;;15.00
68440;BMP180;55421;51.600;5.718;2023-09-19T00:40:30;222852.41;;;15.00
68440;BMP180;55421;51.600;5.718;2023-09-19T00:42:58;222847.59;;;15.00
68440;BMP180;55421;51.600;5.718;2023-09-19T00:45:27;222838.41;;;15.00
68440;BMP180;55421;51.600;5.718;2023-09-19T00:47:54;222835.59;;;15.00
68440;BMP180;55421;51.600;5.718;2023-09-19T00:50:24;222832.41;;;15.00
68440;BMP180;55421;51.600;5.718;2023-09-19T00:52:54;222831.20;;;14.98
68440;BMP180;55421;51.600;5.718;2023-09-19T00:55:25;222830.41;;;14.94
68440;BMP180;55421;51.600;5.718;2023-09-19T00:57:56;222814.80;;;14.90
68440;BMP180;55421;51.600;5.718;2023-09-19T01:00:23;222799.41;;;14.90
68440;BMP180;55421;51.600;5.718;2023-09-19T01:02:50;222793.00;;;14.90
68440;BMP180;55421;51.600;5.718;2023-09-19T01:05:16;222771.00;;;14.80
68440;BMP180;55421;51.600;5.718;2023-09-19T01:07:44;222762.59;;;14.80
68440;BMP180;55421;51.600;5.718;2023-09-19T01:10:15;222753.80;;;14.80
68440;BMP180;55421;51.600;5.718;2023-09-19T01:13:29;222730.20;;;14.80
68440;BMP180;55421;51.600;5.718;2023-09-19T01:18:58;222728.59;;;14.80
68440;BMP180;55421;51.600;5.718;2023-09-19T01:21:34;222716.20;;;14.70
68440;BMP180;55421;51.600;5.718;2023-09-19T01:24:31;222704.20;;;14.70
68440;BMP180;55421;51.600;5.718;2023-09-19T01:27:25;222696.59;;;14.70
68440;BMP180;55421;51.600;5.718;2023-09-19T01:30:24;222685.00;;;14.70
68440;BMP180;55421;51.600;5.718;2023-09-19T01:32:54;222679.20;;;14.70
68440;BMP180;55421;51.600;5.718;2023-09-19T01:35:21;222679.20;;;14.70
68440;BMP180;55421;51.600;5.718;2023-09-19T01:37:47;222680.20;;;14.70
68440;BMP180;55421;51.600;5.718;2023-09-19T01:40:19;222670.80;;;14.70
68440;BMP180;55421;51.600;5.718;2023-09-19T01:43:02;222670.41;;;14.68
68440;BMP180;55421;51.600;5.718;2023-09-19T01:46:12;222667.59;;;14.62
68440;BMP180;55421;51.600;5.718;2023-09-19T01:51:42;222949.20;;;14.60
68440;BMP180;55421;51.600;5.718;2023-09-19T01:54:21;223336.00;;;14.60
68440;BMP180;55421;51.600;5.718;2023-09-19T01:57:03;223375.20;;;14.58
68440;BMP180;55421;51.600;5.718;2023-09-19T01:59:41;223708.00;;;14.50
68440;BMP180;55421;51.600;5.718;2023-09-19T02:02:11;223596.80;;;14.50
68440;BMP180;55421;51.600;5.718;2023-09-19T02:04:38;223382.59;;;14.50
68440;BMP180;55421;51.600;5.718;2023-09-19T02:07:05;223694.59;;;14.50
68440;BMP180;55421;51.600;5.718;2023-09-19T02:09:34;223520.59;;;14.50
68440;BMP180;55421;51.600;5.718;2023-09-19T02:12:05;223448.00;;;14.50
68440;BMP180;55421;51.600;5.718;2023-09-19T02:14:32;223365.41;;;14.50
68440;BMP180;55421;51.600;5.718;2023-09-19T02:16:59;223134.20;;;14.40
68440;BMP180;55421;51.600;5.718;2023-09-19T02:19:27;222867.80;;;14.40
68440;BMP180;55421;51.600;5.718;2023-09-19T02:21:54;222861.59;;;14.40
68440;BMP180;55421;51.600;5.718;2023-09-19T02:24:21;222697.41;;;14.34
68440;BMP180;55421;51.600;5.718;2023-09-19T02:26:47;222709.00;;;14.30
68440;BMP180;55421;51.600;5.718;2023-09-19T02:29:13;222666.20;;;14.30
68440;BMP180;55421;51.600;5.718;2023-09-19T02:31:40;222602.00;;;14.30
68440;BMP180;55421;51.600;5.718;2023-09-19T02:34:06;222480.00;;;14.30
68440;BMP180;55421;51.600;5.718;2023-09-19T02:36:36;222457.00;;;14.26
68440;BMP180;55421;51.600;5.718;2023-09-19T02:39:03;222422.00;;;14.20
68440;BMP180;55421;51.600;5.718;2023-09-19T02:41:31;222419.59;;;14.20
68440;BMP180;55421;51.600;5.718;2023-09-19T02:43:59;222386.41;;;14.20
68440;BMP180;55421;51.600;5.718;2023-09-19T02:46:25;222368.80;;;14.10
68440;BMP180;55421;51.600;5.718;2023-09-19T02:48:52;222356.59;;;14.10
68440;BMP180;55421;51.600;5.718;2023-09-19T02:51:18;222354.59;;;14.10
68440;BMP180;55421;51.600;5.718;2023-09-19T02:53:45;222345.59;;;14.10
68440;BMP180;55421;51.600;5.718;2023-09-19T02:56:13;222330.80;;;14.06
68440;BMP180;55421;51.600;5.718;2023-09-19T02:58:42;222320.00;;;14.00
68440;BMP180;55421;51.600;5.718;2023-09-19T03:01:12;222314.00;;;14.00
68440;BMP180;55421;51.600;5.718;2023-09-19T03:03:39;222300.80;;;14.00
68440;BMP180;55421;51.600;5.718;2023-09-19T03:06:06;222286.80;;;14.00
68440;BMP180;55421;51.600;5.718;2023-09-19T03:08:36;222276.41;;;13.94
68440;BMP180;55421;51.600;5.718;2023-09-19T03:11:06;222259.59;;;13.90
68440;BMP180;55421;51.600;5.718;2023-09-19T03:13:34;222254.80;;;13.90
68440;BMP180;55421;51.600;5.718;2023-09-19T03:16:02;222244.00;;;13.90
68440;BMP180;55421;51.600;5.718;2023-09-19T03:18:34;222231.80;;;13.90
68440;BMP180;55421;51.600;5.718;2023-09-19T03:21:01;222224.41;;;13.90
68440;BMP180;55421;51.600;5.718;2023-09-19T03:23:28;222221.80;;;13.90
68440;BMP180;55421;51.600;5.718;2023-09-19T03:25:55;222213.80;;;13.86
68440;BMP180;55421;51.600;5.718;2023-09-19T03:28:22;222196.20;;;13.80
68440;BMP180;55421;51.600;5.718;2023-09-19T03:31:03;222193.00;;;13.80
68440;BMP180;55421;51.600;5.718;2023-09-19T03:33:30;222181.41;;;13.80
68440;BMP180;55421;51.600;5.718;2023-09-19T03:36:02;222171.80;;;13.80
68440;BMP180;55421;51.600;5.718;2023-09-19T03:38:31;222174.20;;;13.80
68440;BMP180;55421;51.600;5.718;2023-09-19T03:40:58;222174.20;;;13.80
68440;BMP180;55421;51.600;5.718;2023-09-19T03:43:25;222165.00;;;13.80
68440;BMP180;55421;51.600;5.718;2023-09-19T03:45:53;222163.00;;;13.80
68440;BMP180;55421;51.600;5.718;2023-09-19T03:48:20;222160.20;;;13.76
68440;BMP180;55421;51.600;5.718;2023-09-19T03:50:48;222159.00;;;13.80
68440;BMP180;55421;51.600;5.718;2023-09-19T03:53:14;222160.20;;;13.76
68440;BMP180;55421;51.600;5.718;2023-09-19T03:55:41;222155.80;;;13.70
68440;BMP180;55421;51.600;5.718;2023-09-19T03:58:07;222136.59;;;13.70
68440;BMP180;55421;51.600;5.718;2023-09-19T04:00:34;222129.41;;;13.70
68440;BMP180;55421;51.600;5.718;2023-09-19T04:03:00;222115.41;;;13.70
68440;BMP180;55421;51.600;5.718;2023-09-19T04:05:32;222107.41;;;13.70
68440;BMP180;55421;51.600;5.718;2023-09-19T04:08:00;222112.20;;;13.70
68440;BMP180;55421;51.600;5.718;2023-09-19T04:10:26;222105.80;;;13.68
68440;BMP180;55421;51.600;5.718;2023-09-19T04:12:54;222107.41;;;13.70
68440;BMP180;55421;51.600;5.718;2023-09-19T04:15:22;222101.80;;;13.64
68440;BMP180;55421;51.600;5.718;2023-09-19T04:17:50;222099.00;;;13.66
68440;BMP180;55421;51.600;5.718;2023-09-19T04:20:21;222091.41;;;13.60
68440;BMP180;55421;51.600;5.718;2023-09-19T04:22:49;222090.20;;;13.60
68440;BMP180;55421;51.600;5.718;2023-09-19T04:25:16;222088.59;;;13.60
68440;BMP180;55421;51.600;5.718;2023-09-19T04:27:44;222087.00;;;13.60
68440;BMP180;55421;51.600;5.718;2023-09-19T04:30:11;222088.59;;;13.60
68440;BMP180;55421;51.600;5.718;2023-09-19T04:32:38;222088.59;;;13.60
68440;BMP180;55421;51.600;5.718;2023-09-19T04:35:09;222072.41;;;13.60
68440;BMP180;55421;51.600;5.718;2023-09-19T04:37:38;222062.80;;;13.60
68440;BMP180;55421;51.600;5.718;2023-09-19T04:40:10;222064.00;;;13.60
68440;BMP180;55421;51.600;5.718;2023-09-19T04:42:41;222063.20;;;13.60
68440;BMP180;55421;51.600;5.718;2023-09-19T04:45:08;222052.59;;;13.60
68440;BMP180;55421;51.600;5.718;2023-09-19T04:47:37;222041.41;;;13.58
68440;BMP180;55421;51.600;5.718;2023-09-19T04:50:09;222043.00;;;13.56
68440;BMP180;55421;51.600;5.718;2023-09-19T04:52:41;222045.41;;;13.60
68440;BMP180;55421;51.600;5.718;2023-09-19T04:55:12;222054.41;;;13.60
68440;BMP180;55421;51.600;5.718;2023-09-19T04:57:49;222061.80;;;13.60
68440;BMP180;55421;51.600;5.718;2023-09-19T05:00:18;222071.41;;;13.60
68440;BMP180;55421;51.600;5.718;2023-09-19T05:02:52;222087.00;;;13.60
68440;BMP180;55421;51.600;5.718;2023-09-19T05:05:19;222091.80;;;13.60
68440;BMP180;55421;51.600;5.718;2023-09-19T05:07:46;222107.41;;;13.68
68440;BMP180;55421;51.600;5.718;2023-09-19T05:10:13;222123.41;;;13.70
68440;BMP180;55421;51.600;5.718;2023-09-19T05:12:41;222133.80;;;13.70
68440;BMP180;55421;51.600;5.718;2023-09-19T05:15:08;222139.80;;;13.70
68440;BMP180;55421;51.600;5.718;2023-09-19T05:17:35;222147.00;;;13.70
68440;BMP180;55421;51.600;5.718;2023-09-19T05:20:03;222146.59;;;13.70
68440;BMP180;55421;51.600;5.718;2023-09-19T05:22:32;222148.59;;;13.70
68440;BMP180;55421;51.600;5.718;2023-09-19T05:24:59;222156.20;;;13.70
68440;BMP180;55421;51.600;5.718;2023-09-19T05:27:25;222157.41;;;13.78
68440;BMP180;55421;51.600;5.718;2023-09-19T05:29:52;222154.59;;;13.72
68440;BMP180;55421;51.600;5.718;2023-09-19T05:32:19;222160.20;;;13.74
68440;BMP180;55421;51.600;5.718;2023-09-19T05:34:46;222163.41;;;13.78
68440;BMP180;55421;51.600;5.718;2023-09-19T05:37:19;222160.20;;;13.80
68440;BMP180;55421;51.600;5.718;2023-09-19T05:39:46;222164.20;;;13.78
68440;BMP180;55421;51.600;5.718;2023-09-19T05:42:12;222164.20;;;13.80
68440;BMP180;55421;51.600;5.718;2023-09-19T05:44:39;222165.00;;;13.80
68440;BMP180;55421;51.600;5.718;2023-09-19T05:47:06;222172.59;;;13.80
68440;BMP180;55421;51.600;5.718;2023-09-19T05:49:35;222178.59;;;13.80
68440;BMP180;55421;51.600;5.718;2023-09-19T05:52:05;222176.20;;;13.80
68440;BMP180;55421;51.600;5.718;2023-09-19T05:54:33;222182.20;;;13.80
68440;BMP180;55421;51.600;5.718;2023-09-19T05:57:01;222188.20;;;13.80
68440;BMP180;55421;51.600;5.718;2023-09-19T05:59:28;222201.00;;;13.82
68440;BMP180;55421;51.600;5.718;2023-09-19T06:01:54;222209.80;;;13.86
68440;BMP180;55421;51.600;5.718;2023-09-19T06:04:21;222221.80;;;13.90
68440;BMP180;55421;51.600;5.718;2023-09-19T06:06:48;222244.00;;;13.90
68440;BMP180;55421;51.600;5.718;2023-09-19T06:09:15;222253.20;;;13.90
68440;BMP180;55421;51.600;5.718;2023-09-19T06:11:42;222256.80;;;13.90
68440;BMP180;55421;51.600;5.718;2023-09-19T06:14:08;222270.41;;;13.92
68440;BMP180;55421;51.600;5.718;2023-09-19T06:16:36;222282.00;;;14.00
68440;BMP180;55421;51.600;5.718;2023-09-19T06:19:04;222285.20;;;14.00
68440;BMP180;55421;51.600;5.718;2023-09-19T06:21:36;222296.80;;;14.00
68440;BMP180;55421;51.600;5.718;2023-09-19T06:24:02;222307.59;;;14.00
68440;BMP180;55421;51.600;5.718;2023-09-19T06:26:29;222318.00;;;14.00
68440;BMP180;55421;51.600;5.718;2023-09-19T06:28:57;222331.80;;;14.10
68440;BMP180;55421;51.600;5.718;2023-09-19T06:31:25;222337.80;;;14.10
68440;BMP180;55421;51.600;5.718;2023-09-19T06:33:55;222348.20;;;14.10
68440;BMP180;55421;51.600;5.718;2023-09-19T06:36:21;222359.80;;;14.10
68440;BMP180;55421;51.600;5.718;2023-09-19T06:38:48;222376.20;;;14.10
68440;BMP180;55421;51.600;5.718;2023-09-19T06:41:14;222386.41;;;14.18
68440;BMP180;55421;51.600;5.718;2023-09-19T06:43:43;222399.59;;;14.20
68440;BMP180;55421;51.600;5.718;2023-09-19T06:46:10;222402.80;;;14.20
68440;BMP180;55421;51.600;5.718;2023-09-19T06:48:36;222422.80;;;14.20
68440;BMP180;55421;51.600;5.718;2023-09-19T06:51:04;222430.00;;;14.20
68440;BMP180;55421;51.600;5.718;2023-09-19T06:53:34;222442.41;;;14.24
68440;BMP180;55421;51.600;5.718;2023-09-19T06:56:02;222457.20;;;14.30
68440;BMP180;55421;51.600;5.718;2023-09-19T06:58:29;222482.00;;;14.30
68440;BMP180;55421;51.600;5.718;2023-09-19T07:00:56;222496.00;;;14.40
68440;BMP180;55421;51.600;5.718;2023-09-19T07:03:23;222509.80;;;14.40
68440;BMP180;55421;51.600;5.718;2023-09-19T07:05:52;222522.41;;;14.40
68440;BMP180;55421;51.600;5.718;2023-09-19T07:08:19;222541.00;;;14.44
68440;BMP180;55421;51.600;5.718;2023-09-19T07:10:46;222559.00;;;14.50
68440;BMP180;55421;51.600;5.718;2023-09-19T07:13:15;222576.59;;;14.50
68440;BMP180;55421;51.600;5.718;2023-09-19T07:15:44;222605.20;;;14.50
68440;BMP180;55421;51.600;5.718;2023-09-19T07:18:14;222625.20;;;14.60
68440;BMP180;55421;51.600;5.718;2023-09-19T07:20:44;222639.20;;;14.60
68440;BMP180;55421;51.600;5.718;2023-09-19T07:23:19;222650.00;;;14.60
68440;BMP180;55421;51.600;5.718;2023-09-19T07:25:47;222659.59;;;14.60
68440;BMP180;55421;51.600;5.718;2023-09-19T07:28:15;222675.00;;;14.68
68440;BMP180;55421;51.600;5.718;2023-09-19T07:30:42;222691.80;;;14.70
68440;BMP180;55421;51.600;5.718;2023-09-19T07:33:08;222713.41;;;14.70
68440;BMP180;55421;51.600;5.718;2023-09-19T07:35:38;222736.20;;;14.80
68440;BMP180;55421;51.600;5.718;2023-09-19T07:38:08;222761.00;;;14.80
68440;BMP180;55421;51.600;5.718;2023-09-19T07:40:37;222785.41;;;14.90
68440;BMP180;55421;51.600;5.718;2023-09-19T07:43:04;222795.00;;;14.90
68440;BMP180;55421;51.600;5.718;2023-09-19T07:45:31;222809.00;;;14.90
68440;BMP180;55421;51.600;5.718;2023-09-19T07:47:58;222825.00;;;14.92
68440;BMP180;55421;51.600;5.718;2023-09-19T07:50:27;222838.00;;;15.00
68440;BMP180;55421;51.600;5.718;2023-09-19T07:52:55;222911.80;;;15.10
68440;BMP180;55421;51.600;5.718;2023-09-19T07:55:23;223248.80;;;15.20
68440;BMP180;55421;51.600;5.718;2023-09-19T07:57:52;223883.59;;;15.26
68440;BMP180;55421;51.600;5.718;2023-09-19T08:00:19;224621.20;;;15.30
68440;BMP180;55421;51.600;5.718;2023-09-19T08:02:45;226186.41;;;15.44
68440;BMP180;55421;51.600;5.718;2023-09-19T08:05:13;231258.41;;;15.50
68440;BMP180;55421;51.600;5.718;2023-09-19T08:07:45;232572.20;;;15.52
68440;BMP180;55421;51.600;5.718;2023-09-19T08:10:15;235630.80;;;15.60
68440;BMP180;55421;51.600;5.718;2023-09-19T08:12:43;189500.80;;;15.70
68440;BMP180;55421;51.600;5.718;2023-09-19T08:15:14;192489.20;;;15.78
68440;BMP180;55421;51.600;5.718;2023-09-19T08:17:41;193434.20;;;15.80
68440;BMP180;55421;51.600;5.718;2023-09-19T08:20:10;193643.80;;;15.82
68440;BMP180;55421;51.600;5.718;2023-09-19T08:22:47;146776.41;;;15.90
68440;BMP180;55421;51.600;5.718;2023-09-19T08:25:15;147260.59;;;15.92
68440;BMP180;55421;51.600;5.718;2023-09-19T08:27:48;146994.00;;;16.00
68440;BMP180;55421;51.600;5.718;2023-09-19T08:30:17;102425.40;;;16.06
68440;BMP180;55421;51.600;5.718;2023-09-19T08:32:44;102845.80;;;16.10
68440;BMP180;55421;51.600;5.718;2023-09-19T08:35:12;102854.80;;;16.20
68440;BMP180;55421;51.600;5.718;2023-09-19T08:37:39;102058.00;;;16.20
68440;BMP180;55421;51.600;5.718;2023-09-19T08:40:06;100680.00;;;16.30
68440;BMP180;55421;51.600;5.718;2023-09-19T08:42:49;99178.60;;;16.36
68440;BMP180;55421;51.600;5.718;2023-09-19T08:45:17;54847.80;;;16.42
68440;BMP180;55421;51.600;5.718;2023-09-19T08:48:22;51903.80;;;16.52
68440;BMP180;55421;51.600;5.718;2023-09-19T08:51:46;8894.20;;;16.70
68440;BMP180;55421;51.600;5.718;2023-09-19T08:54:25;55368.60;;;16.80
68440;BMP180;55421;51.600;5.718;2023-09-19T08:57:02;102766.00;;;16.80
68440;BMP180;55421;51.600;5.718;2023-09-19T08:59:30;152228.00;;;16.80
68440;BMP180;55421;51.600;5.718;2023-09-19T09:01:57;7113.40;;;17.00
68440;BMP180;55421;51.600;5.718;2023-09-19T09:04:26;7825.20;;;17.16
68440;BMP180;55421;51.600;5.718;2023-09-19T09:06:53;101877.80;;;17.20
68440;BMP180;55421;51.600;5.718;2023-09-19T09:09:21;193868.00;;;17.12
68440;BMP180;55421;51.600;5.718;2023-09-19T09:11:51;240387.41;;;17.18
68440;BMP180;55421;51.600;5.718;2023-09-19T09:14:20;240485.59;;;17.30
68440;BMP180;55421;51.600;5.718;2023-09-19T09:16:48;235995.41;;;17.40
68440;BMP180;55421;51.600;5.718;2023-09-19T09:19:15;231008.59;;;17.40
68440;BMP180;55421;51.600;5.718;2023-09-19T09:21:47;229045.20;;;17.50
68440;BMP180;55421;51.600;5.718;2023-09-19T09:24:29;226754.59;;;17.50
68440;BMP180;55421;51.600;5.718;2023-09-19T09:26:57;226046.80;;;17.60
68440;BMP180;55421;51.600;5.718;2023-09-19T09:29:44;225892.41;;;17.60
68440;BMP180;55421;51.600;5.718;2023-09-19T09:32:18;228762.00;;;17.74
68440;BMP180;55421;51.600;5.718;2023-09-19T09:34:57;228587.20;;;17.88
68440;BMP180;55421;51.600;5.718;2023-09-19T09:37:26;227889.59;;;17.90
68440;BMP180;55421;51.600;5.718;2023-09-19T09:39:59;226613.80;;;18.00
68440;BMP180;55421;51.600;5.718;2023-09-19T09:42:45;225290.41;;;18.02
68440;BMP180;55421;51.600;5.718;2023-09-19T09:45:21;224719.59;;;18.00
68440;BMP180;55421;51.600;5.718;2023-09-19T09:48:00;224580.41;;;18.00
68440;BMP180;55421;51.600;5.718;2023-09-19T09:50:33;224601.20;;;18.10
68440;BMP180;55421;51.600;5.718;2023-09-19T09:53:30;224642.80;;;18.20
68440;BMP180;55421;51.600;5.718;2023-09-19T09:56:08;224673.80;;;18.20
68440;BMP180;55421;51.600;5.718;2023-09-19T09:58:51;224688.20;;;18.20
68440;BMP180;55421;51.600;5.718;2023-09-19T10:01:25;224682.20;;;18.20
68440;BMP180;55421;51.600;5.718;2023-09-19T10:03:58;224706.59;;;18.28
68440;BMP180;55421;51.600;5.718;2023-09-19T10:06:40;224748.00;;;18.30
68440;BMP180;55421;51.600;5.718;2023-09-19T10:09:14;224773.20;;;18.40
68440;BMP180;55421;51.600;5.718;2023-09-19T10:11:46;224771.59;;;18.38
68440;BMP180;55421;51.600;5.718;2023-09-19T10:14:18;224786.00;;;18.40
68440;BMP180;55421;51.600;5.718;2023-09-19T10:16:53;224859.00;;;18.52
68440;BMP180;55421;51.600;5.718;2023-09-19T10:19:36;224877.41;;;18.60
68440;BMP180;55421;51.600;5.718;2023-09-19T10:22:05;224907.00;;;18.60
68440;BMP180;55421;51.600;5.718;2023-09-19T10:24:36;225017.80;;;18.80
68440;BMP180;55421;51.600;5.718;2023-09-19T10:27:06;225047.80;;;18.90
68440;BMP180;55421;51.600;5.718;2023-09-19T10:29:39;225105.00;;;19.00
68440;BMP180;55421;51.600;5.718;2023-09-19T10:32:06;225176.41;;;19.10
68440;BMP180;55421;51.600;5.718;2023-09-19T10:34:35;225247.41;;;19.20
68440;BMP180;55421;51.600;5.718;2023-09-19T10:37:04;225271.41;;;19.30
68440;BMP180;55421;51.600;5.718;2023-09-19T10:39:32;225204.59;;;19.14
68440;BMP180;55421;51.600;5.718;2023-09-19T10:42:02;225220.59;;;19.20
68440;BMP180;55421;51.600;5.718;2023-09-19T10:44:33;225209.00;;;19.14
68440;BMP180;55421;51.600;5.718;2023-09-19T10:46:59;225237.80;;;19.20
68440;BMP180;55421;51.600;5.718;2023-09-19T10:49:26;225210.20;;;19.20
68440;BMP180;55421;51.600;5.718;2023-09-19T10:51:56;225202.20;;;19.12
68440;BMP180;55421;51.600;5.718;2023-09-19T10:54:29;225206.59;;;19.10
68440;BMP180;55421;51.600;5.718;2023-09-19T10:56:59;225229.80;;;19.20
68440;BMP180;55421;51.600;5.718;2023-09-19T10:59:26;225226.59;;;19.20
68440;BMP180;55421;51.600;5.718;2023-09-19T11:02:18;225213.41;;;19.18
68440;BMP180;55421;51.600;5.718;2023-09-19T11:04:45;225236.20;;;19.20
68440;BMP180;55421;51.600;5.718;2023-09-19T11:07:15;225271.00;;;19.30
68440;BMP180;55421;51.600;5.718;2023-09-19T11:09:55;225295.00;;;19.30
68440;BMP180;55421;51.600;5.718;2023-09-19T11:15:08;225339.20;;;19.40
68440;BMP180;55421;51.600;5.718;2023-09-19T11:17:36;225380.80;;;19.48
68440;BMP180;55421;51.600;5.718;2023-09-19T11:30:37;225384.41;;;19.50
68440;BMP180;55421;51.600;5.718;2023-09-19T11:33:28;225410.00;;;19.50
68440;BMP180;55421;51.600;5.718;2023-09-19T11:38:57;225410.41;;;19.50
68440;BMP180;55421;51.600;5.718;2023-09-19T11:44:33;225486.20;;;19.62
68440;BMP180;55421;51.600;5.718;2023-09-19T11:46:55;225492.41;;;19.66
68440;BMP180;55421;51.600;5.718;2023-09-19T11:49:29;225491.00;;;19.68
68440;BMP180;55421;51.600;5.718;2023-09-19T11:52:03;225498.80;;;19.70
68440;BMP180;55421;51.600;5.718;2023-09-19T11:54:36;225503.20;;;19.70
68440;BMP180;55421;51.600;5.718;2023-09-19T11:57:07;225529.20;;;19.70
68440;BMP180;55421;51.600;5.718;2023-09-19T11:59:39;225517.20;;;19.70
68440;BMP180;55421;51.600;5.718;2023-09-19T12:02:07;225515.20;;;19.70
68440;BMP180;55421;51.600;5.718;2023-09-19T12:04:40;225537.59;;;19.70
68440;BMP180;55421;51.600;5.718;2023-09-19T12:07:09;225544.41;;;19.70
68440;BMP180;55421;51.600;5.718;2023-09-19T12:09:45;225564.80;;;19.80
68440;BMP180;55421;51.600;5.718;2023-09-19T12:12:23;225564.80;;;19.80
68440;BMP180;55421;51.600;5.718;2023-09-19T12:14:50;225555.20;;;19.80
68440;BMP180;55421;51.600;5.718;2023-09-19T12:17:17;225560.00;;;19.80
68440;BMP180;55421;51.600;5.718;2023-09-19T12:19:56;225578.41;;;19.80
68440;BMP180;55421;51.600;5.718;2023-09-19T12:22:23;225598.41;;;19.88
68440;BMP180;55421;51.600;5.718;2023-09-19T12:24:51;225615.59;;;19.90
68440;BMP180;55421;51.600;5.718;2023-09-19T12:27:20;225617.20;;;19.90
68440;BMP180;55421;51.600;5.718;2023-09-19T12:29:50;225630.00;;;19.90
68440;BMP180;55421;51.600;5.718;2023-09-19T12:32:37;225687.80;;;20.00
68440;BMP180;55421;51.600;5.718;2023-09-19T12:35:07;225716.59;;;20.08
68440;BMP180;55421;51.600;5.718;2023-09-19T12:37:43;225694.20;;;20.00
68440;BMP180;55421;51.600;5.718;2023-09-19T12:40:14;225652.59;;;19.98
68440;BMP180;55421;51.600;5.718;2023-09-19T12:42:45;225615.59;;;19.90
68440;BMP180;55421;51.600;5.718;2023-09-19T12:45:14;225598.41;;;19.82
68440;BMP180;55421;51.600;5.718;2023-09-19T12:48:21;225583.20;;;19.80
68440;BMP180;55421;51.600;5.718;2023-09-19T12:51:09;225518.80;;;19.70
68440;BMP180;55421;51.600;5.718;2023-09-19T12:53:40;225463.80;;;19.60
68440;BMP180;55421;51.600;5.718;2023-09-19T12:56:13;225414.80;;;19.50
68440;BMP180;55421;51.600;5.718;2023-09-19T12:58:58;225371.59;;;19.44
68440;BMP180;55421;51.600;5.718;2023-09-19T13:01:27;225347.20;;;19.40
68440;BMP180;55421;51.600;5.718;2023-09-19T13:04:17;225319.59;;;19.38
68440;BMP180;55421;51.600;5.718;2023-09-19T13:06:52;225339.59;;;19.40
68440;BMP180;55421;51.600;5.718;2023-09-19T13:09:22;225366.80;;;19.40
68440;BMP180;55421;51.600;5.718;2023-09-19T13:11:50;225392.00;;;19.50
68440;BMP180;55421;51.600;5.718;2023-09-19T13:14:24;225443.20;;;19.60
68440;BMP180;55421;51.600;5.718;2023-09-19T13:17:04;225519.20;;;19.70
68440;BMP180;55421;51.600;5.718;2023-09-19T13:19:41;225602.80;;;19.90
68440;BMP180;55421;51.600;5.718;2023-09-19T13:22:43;225632.80;;;19.90
68440;BMP180;55421;51.600;5.718;2023-09-19T13:25:21;225670.20;;;20.00
68440;BMP180;55421;51.600;5.718;2023-09-19T13:27:51;225670.20;;;20.00
68440;BMP180;55421;51.600;5.718;2023-09-19T13:30:26;225653.00;;;19.98
68440;BMP180;55421;51.600;5.718;2023-09-19T13:33:06;225609.20;;;19.90
68440;BMP180;55421;51.600;5.718;2023-09-19T13:35:33;225564.80;;;19.80
68440;BMP180;55421;51.600;5.718;2023-09-19T13:38:00;225540.00;;;19.70
68440;BMP180;55421;51.600;5.718;2023-09-19T13:40:27;225522.00;;;19.70
68440;BMP180;55421;51.600;5.718;2023-09-19T13:42:56;225518.41;;;19.70
68440;BMP180;55421;51.600;5.718;2023-09-19T13:45:23;225545.59;;;19.70
68440;BMP180;55421;51.600;5.718;2023-09-19T13:47:53;225561.59;;;19.80
68440;BMP180;55421;51.600;5.718;2023-09-19T13:50:20;225539.59;;;19.72
68440;BMP180;55421;51.600;5.718;2023-09-19T13:52:51;225507.20;;;19.70
68440;BMP180;55421;51.600;5.718;2023-09-19T13:55:17;225484.59;;;19.60
68440;BMP180;55421;51.600;5.718;2023-09-19T13:57:50;225470.20;;;19.60
68440;BMP180;55421;51.600;5.718;2023-09-19T14:00:18;225492.59;;;19.68
68440;BMP180;55421;51.600;5.718;2023-09-19T14:02:45;225516.80;;;19.70
68440;BMP180;55421;51.600;5.718;2023-09-19T14:05:13;225524.41;;;19.70
68440;BMP180;55421;51.600;5.718;2023-09-19T14:07:42;225514.00;;;19.70
68440;BMP180;55421;51.600;5.718;2023-09-19T14:10:10;225500.00;;;19.70
68440;BMP180;55421;51.600;5.718;2023-09-19T14:12:38;225476.59;;;19.60
68440;BMP180;55421;51.600;5.718;2023-09-19T14:15:08;225450.59;;;19.60
68440;BMP180;55421;51.600;5.718;2023-09-19T14:17:35;225404.41;;;19.50
68440;BMP180;55421;51.600;5.718;2023-09-19T14:20:02;225358.80;;;19.40
68440;BMP180;55421;51.600;5.718;2023-09-19T14:22:28;225334.59;;;19.40
68440;BMP180;55421;51.600;5.718;2023-09-19T14:24:57;225310.59;;;19.32
68440;BMP180;55421;51.600;5.718;2023-09-19T14:27:25;225299.80;;;19.30
68440;BMP180;55421;51.600;5.718;2023-09-19T14:29:52;225293.41;;;19.30
68440;BMP180;55421;51.600;5.718;2023-09-19T14:32:19;225310.20;;;19.32
68440;BMP180;55421;51.600;5.718;2023-09-19T14:34:45;225344.00;;;19.40
68440;BMP180;55421;51.600;5.718;2023-09-19T14:37:12;225395.59;;;19.50
68440;BMP180;55421;51.600;5.718;2023-09-19T14:39:40;225424.00;;;19.52
68440;BMP180;55421;51.600;5.718;2023-09-19T14:42:08;225460.41;;;19.60